sensor_id;sensor_type;location;lat;lon;timestamp;temperature;humidity
58161;DHT22;49345;47.428;9.892;2022-09-03T00:09:23;14.60;99.90
58161;DHT22;49345;47.428;9.892;2022-09-03T00:14:46;14.50;99.90
58161;DHT22;49345;47.428;9.892;2022-09-03T00:17:16;14.40;99.90
58161;DHT22;49345;47.428;9.892;2022-09-03T01:00:28;13.90;99.90
58161;DHT22;49345;47.428;9.892;2022-09-03T01:42:47;13.40;99.90
58161;DHT22;49345;47.428;9.892;2022-09-03T02:53:35;14.20;99.90
58161;DHT22;49345;47.428;9.892;2022-09-03T02:56:00;14.30;99.90
58161;DHT22;49345;47.428;9.892;2022-09-03T03:00:52;14.30;99.90
58161;DHT22;49345;47.428;9.892;2022-09-03T03:03:18;14.40;99.90
58161;DHT22;49345;47.428;9.892;2022-09-03T03:05:46;14.50;99.90
58161;DHT22;49345;47.428;9.892;2022-09-03T03:08:12;14.60;99.90
58161;DHT22;49345;47.428;9.892;2022-09-03T03:10:40;14.50;99.90
58161;DHT22;49345;47.428;9.892;2022-09-03T03:13:07;14.60;99.90
58161;DHT22;49345;47.428;9.892;2022-09-03T03:15:32;14.50;99.90
58161;DHT22;49345;47.428;9.892;2022-09-03T06:06:13;15.60;99.90
58161;DHT22;49345;47.428;9.892;2022-09-03T06:08:40;15.90;99.90
58161;DHT22;49345;47.428;9.892;2022-09-03T06:11:06;15.90;99.90
58161;DHT22;49345;47.428;9.892;2022-09-03T06:13:33;16.00;99.90
58161;DHT22;49345;47.428;9.892;2022-09-03T06:16:00;16.00;99.90
58161;DHT22;49345;47.428;9.892;2022-09-03T06:18:26;16.00;99.90
58161;DHT22;49345;47.428;9.892;2022-09-03T06:20:53;16.10;99.90
58161;DHT22;49345;47.428;9.892;2022-09-03T06:23:18;16.10;99.90
58161;DHT22;49345;47.428;9.892;2022-09-03T06:25:44;16.10;99.90
58161;DHT22;49345;47.428;9.892;2022-09-03T06:28:10;16.20;99.90
58161;DHT22;49345;47.428;9.892;2022-09-03T06:30:35;16.20;99.90
58161;DHT22;49345;47.428;9.892;2022-09-03T06:33:01;16.20;99.90
58161;DHT22;49345;47.428;9.892;2022-09-03T06:35:27;16.30;99.90
58161;DHT22;49345;47.428;9.892;2022-09-03T06:37:52;16.20;99.90
58161;DHT22;49345;47.428;9.892;2022-09-03T06:40:18;16.40;99.90
58161;DHT22;49345;47.428;9.892;2022-09-03T06:42:55;16.50;99.90
58161;DHT22;49345;47.428;9.892;2022-09-03T06:45:26;16.60;99.90
58161;DHT22;49345;47.428;9.892;2022-09-03T06:47:53;16.70;99.90
58161;DHT22;49345;47.428;9.892;2022-09-03T06:50:19;16.90;99.90
58161;DHT22;49345;47.428;9.892;2022-09-03T06:52:49;17.00;99.90
58161;DHT22;49345;47.428;9.892;2022-09-03T06:55:14;17.20;99.90
58161;DHT22;49345;47.428;9.892;2022-09-03T06:57:40;17.30;99.90
58161;DHT22;49345;47.428;9.892;2022-09-03T07:00:06;17.30;99.90
58161;DHT22;49345;47.428;9.892;2022-09-03T07:02:31;17.30;99.90
58161;DHT22;49345;47.428;9.892;2022-09-03T07:04:57;17.40;99.90
58161;DHT22;49345;47.428;9.892;2022-09-03T07:07:23;17.40;99.90
58161;DHT22;49345;47.428;9.892;2022-09-03T07:09:49;17.50;99.90
58161;DHT22;49345;47.428;9.892;2022-09-03T07:12:14;17.50;99.90
58161;DHT22;49345;47.428;9.892;2022-09-03T07:14:42;17.40;99.90
58161;DHT22;49345;47.428;9.892;2022-09-03T07:17:08;17.30;99.90
58161;DHT22;49345;47.428;9.892;2022-09-03T07:19:33;17.40;99.90
58161;DHT22;49345;47.428;9.892;2022-09-03T07:21:59;17.60;99.90
58161;DHT22;49345;47.428;9.892;2022-09-03T07:24:25;17.80;99.90
58161;DHT22;49345;47.428;9.892;2022-09-03T07:26:51;18.10;99.90
58161;DHT22;49345;47.428;9.892;2022-09-03T07:29:17;18.30;99.90
58161;DHT22;49345;47.428;9.892;2022-09-03T07:31:44;18.50;99.90
58161;DHT22;49345;47.428;9.892;2022-09-03T07:34:11;18.70;99.90
58161;DHT22;49345;47.428;9.892;2022-09-03T07:36:40;18.70;99.90
58161;DHT22;49345;47.428;9.892;2022-09-03T07:39:08;18.80;99.90
58161;DHT22;49345;47.428;9.892;2022-09-03T07:41:35;18.90;99.90
58161;DHT22;49345;47.428;9.892;2022-09-03T07:44:01;18.90;99.90
58161;DHT22;49345;47.428;9.892;2022-09-03T07:46:30;19.00;99.90
58161;DHT22;49345;47.428;9.892;2022-09-03T07:48:57;19.20;99.90
58161;DHT22;49345;47.428;9.892;2022-09-03T07:51:24;19.40;99.90
58161;DHT22;49345;47.428;9.892;2022-09-03T07:53:52;19.50;99.90
58161;DHT22;49345;47.428;9.892;2022-09-03T07:56:17;19.50;99.90
58161;DHT22;49345;47.428;9.892;2022-09-03T07:58:43;19.70;99.90
58161;DHT22;49345;47.428;9.892;2022-09-03T08:01:10;19.70;99.90
58161;DHT22;49345;47.428;9.892;2022-09-03T08:03:35;19.70;99.90
58161;DHT22;49345;47.428;9.892;2022-09-03T08:06:02;19.80;99.90
58161;DHT22;49345;47.428;9.892;2022-09-03T08:08:28;19.80;99.90
58161;DHT22;49345;47.428;9.892;2022-09-03T08:10:54;19.80;99.90
58161;DHT22;49345;47.428;9.892;2022-09-03T08:13:19;19.80;99.90
58161;DHT22;49345;47.428;9.892;2022-09-03T08:15:53;19.80;99.90
58161;DHT22;49345;47.428;9.892;2022-09-03T08:18:18;19.90;99.90
58161;DHT22;49345;47.428;9.892;2022-09-03T08:20:44;20.00;99.90
58161;DHT22;49345;47.428;9.892;2022-09-03T08:23:09;19.90;99.90
58161;DHT22;49345;47.428;9.892;2022-09-03T08:25:35;19.80;99.90
58161;DHT22;49345;47.428;9.892;2022-09-03T08:28:00;19.70;99.90
58161;DHT22;49345;47.428;9.892;2022-09-03T08:30:26;19.60;99.90
58161;DHT22;49345;47.428;9.892;2022-09-03T08:32:52;19.60;99.90
58161;DHT22;49345;47.428;9.892;2022-09-03T08:35:18;19.50;99.90
58161;DHT22;49345;47.428;9.892;2022-09-03T08:37:45;19.40;99.90
58161;DHT22;49345;47.428;9.892;2022-09-03T08:40:14;19.40;99.90
58161;DHT22;49345;47.428;9.892;2022-09-03T08:45:25;19.40;99.90
58161;DHT22;49345;47.428;9.892;2022-09-03T08:48:02;19.40;99.90
58161;DHT22;49345;47.428;9.892;2022-09-03T08:50:30;19.40;99.90
58161;DHT22;49345;47.428;9.892;2022-09-03T08:55:54;19.50;99.90
58161;DHT22;49345;47.428;9.892;2022-09-03T08:58:22;19.50;99.90
58161;DHT22;49345;47.428;9.892;2022-09-03T09:00:52;19.50;99.90
58161;DHT22;49345;47.428;9.892;2022-09-03T09:08:47;19.70;99.90
58161;DHT22;49345;47.428;9.892;2022-09-03T09:11:24;19.80;99.90
58161;DHT22;49345;47.428;9.892;2022-09-03T09:13:55;19.80;99.90
58161;DHT22;49345;47.428;9.892;2022-09-03T09:16:27;19.80;99.90
58161;DHT22;49345;47.428;9.892;2022-09-03T09:22:02;20.00;99.90
58161;DHT22;49345;47.428;9.892;2022-09-03T09:27:24;20.20;99.90
58161;DHT22;49345;47.428;9.892;2022-09-03T09:29:49;20.20;99.80
58161;DHT22;49345;47.428;9.892;2022-09-03T09:32:17;20.20;99.40
58161;DHT22;49345;47.428;9.892;2022-09-03T09:34:43;20.30;99.90
58161;DHT22;49345;47.428;9.892;2022-09-03T09:37:10;20.40;99.90
58161;DHT22;49345;47.428;9.892;2022-09-03T09:39:36;20.40;99.70
58161;DHT22;49345;47.428;9.892;2022-09-03T09:42:06;20.50;99.60
58161;DHT22;49345;47.428;9.892;2022-09-03T09:44:36;20.50;98.90
58161;DHT22;49345;47.428;9.892;2022-09-03T09:47:04;20.60;98.50
58161;DHT22;49345;47.428;9.892;2022-09-03T09:49:33;20.60;98.80
58161;DHT22;49345;47.428;9.892;2022-09-03T09:52:02;20.70;98.10
58161;DHT22;49345;47.428;9.892;2022-09-03T09:54:28;20.80;98.50
58161;DHT22;49345;47.428;9.892;2022-09-03T09:56:58;20.90;97.80
58161;DHT22;49345;47.428;9.892;2022-09-03T09:59:24;21.00;97.40
58161;DHT22;49345;47.428;9.892;2022-09-03T10:01:49;21.00;97.30
58161;DHT22;49345;47.428;9.892;2022-09-03T10:04:23;21.10;97.00
58161;DHT22;49345;47.428;9.892;2022-09-03T10:09:41;21.30;94.70
58161;DHT22;49345;47.428;9.892;2022-09-03T10:14:51;21.80;92.40
58161;DHT22;49345;47.428;9.892;2022-09-03T10:17:20;21.90;90.60
58161;DHT22;49345;47.428;9.892;2022-09-03T10:22:32;22.10;90.70
58161;DHT22;49345;47.428;9.892;2022-09-03T10:25:03;22.20;90.80
58161;DHT22;49345;47.428;9.892;2022-09-03T10:27:29;22.40;90.40
58161;DHT22;49345;47.428;9.892;2022-09-03T10:29:55;22.60;89.10
58161;DHT22;49345;47.428;9.892;2022-09-03T10:35:26;22.80;88.30
58161;DHT22;49345;47.428;9.892;2022-09-03T10:37:57;22.80;88.70
58161;DHT22;49345;47.428;9.892;2022-09-03T10:46:26;22.80;90.90
58161;DHT22;49345;47.428;9.892;2022-09-03T11:00:36;23.20;94.40
58161;DHT22;49345;47.428;9.892;2022-09-03T11:08:29;23.30;94.10
58161;DHT22;49345;47.428;9.892;2022-09-03T11:10:59;23.40;93.50
58161;DHT22;49345;47.428;9.892;2022-09-03T11:13:31;23.40;93.70
58161;DHT22;49345;47.428;9.892;2022-09-03T11:16:02;23.40;93.60
58161;DHT22;49345;47.428;9.892;2022-09-03T11:18:32;23.40;93.70
58161;DHT22;49345;47.428;9.892;2022-09-03T11:20:59;23.70;93.00
58161;DHT22;49345;47.428;9.892;2022-09-03T11:23:30;23.70;93.10
58161;DHT22;49345;47.428;9.892;2022-09-03T11:25:59;23.70;93.10
58161;DHT22;49345;47.428;9.892;2022-09-03T11:36:40;23.50;86.00
58161;DHT22;49345;47.428;9.892;2022-09-03T11:44:49;22.90;89.00
58161;DHT22;49345;47.428;9.892;2022-09-03T11:47:20;22.50;91.90
58161;DHT22;49345;47.428;9.892;2022-09-03T11:49:47;22.30;93.10
58161;DHT22;49345;47.428;9.892;2022-09-03T11:52:30;22.00;94.20
58161;DHT22;49345;47.428;9.892;2022-09-03T11:54:57;21.70;95.20
58161;DHT22;49345;47.428;9.892;2022-09-03T12:00:09;20.60;98.70
58161;DHT22;49345;47.428;9.892;2022-09-03T12:07:49;18.90;99.90
58161;DHT22;49345;47.428;9.892;2022-09-03T12:19:09;17.90;99.90
58161;DHT22;49345;47.428;9.892;2022-09-03T12:21:38;17.80;99.90
58161;DHT22;49345;47.428;9.892;2022-09-03T12:24:04;17.90;99.90
58161;DHT22;49345;47.428;9.892;2022-09-03T12:26:37;17.90;99.90
58161;DHT22;49345;47.428;9.892;2022-09-03T12:29:03;17.90;99.90
58161;DHT22;49345;47.428;9.892;2022-09-03T12:31:31;17.90;99.90
58161;DHT22;49345;47.428;9.892;2022-09-03T12:33:59;17.90;99.90
58161;DHT22;49345;47.428;9.892;2022-09-03T12:36:34;18.00;99.90
58161;DHT22;49345;47.428;9.892;2022-09-03T12:44:41;17.90;99.90
58161;DHT22;49345;47.428;9.892;2022-09-03T12:47:10;17.90;99.90
58161;DHT22;49345;47.428;9.892;2022-09-03T12:49:37;17.90;99.90
58161;DHT22;49345;47.428;9.892;2022-09-03T12:52:05;17.90;99.90
58161;DHT22;49345;47.428;9.892;2022-09-03T12:54:33;17.90;99.90
58161;DHT22;49345;47.428;9.892;2022-09-03T12:57:00;17.90;99.90
58161;DHT22;49345;47.428;9.892;2022-09-03T12:59:26;17.90;99.90
58161;DHT22;49345;47.428;9.892;2022-09-03T13:01:55;17.90;99.90
58161;DHT22;49345;47.428;9.892;2022-09-03T13:04:24;17.70;99.90
58161;DHT22;49345;47.428;9.892;2022-09-03T13:06:53;17.80;99.90
58161;DHT22;49345;47.428;9.892;2022-09-03T13:09:22;17.80;99.90
58161;DHT22;49345;47.428;9.892;2022-09-03T13:11:48;18.00;99.90
58161;DHT22;49345;47.428;9.892;2022-09-03T13:14:16;18.10;99.90
58161;DHT22;49345;47.428;9.892;2022-09-03T13:19:32;18.70;99.90
58161;DHT22;49345;47.428;9.892;2022-09-03T13:27:30;19.20;99.90
58161;DHT22;49345;47.428;9.892;2022-09-03T13:35:26;19.30;99.90
58161;DHT22;49345;47.428;9.892;2022-09-03T13:37:55;19.10;99.90
58161;DHT22;49345;47.428;9.892;2022-09-03T13:43:25;19.00;99.90
58161;DHT22;49345;47.428;9.892;2022-09-03T13:48:35;18.90;99.90
58161;DHT22;49345;47.428;9.892;2022-09-03T13:54:29;19.30;99.90
58161;DHT22;49345;47.428;9.892;2022-09-03T13:56:58;19.40;99.90
58161;DHT22;49345;47.428;9.892;2022-09-03T14:05:16;19.30;99.90
58161;DHT22;49345;47.428;9.892;2022-09-03T14:19:05;19.40;99.90
58161;DHT22;49345;47.428;9.892;2022-09-03T14:21:38;19.40;99.90
58161;DHT22;49345;47.428;9.892;2022-09-03T14:24:09;19.60;99.90
58161;DHT22;49345;47.428;9.892;2022-09-03T14:26:36;19.80;99.90
58161;DHT22;49345;47.428;9.892;2022-09-03T14:37:14;19.90;99.90
58161;DHT22;49345;47.428;9.892;2022-09-03T14:39:53;19.80;99.90
58161;DHT22;49345;47.428;9.892;2022-09-03T14:45:11;19.70;99.90
58161;DHT22;49345;47.428;9.892;2022-09-03T14:53:20;19.80;99.90
58161;DHT22;49345;47.428;9.892;2022-09-03T15:01:22;20.20;99.90
58161;DHT22;49345;47.428;9.892;2022-09-03T15:15:19;20.60;99.90
58161;DHT22;49345;47.428;9.892;2022-09-03T15:17:59;20.50;99.90
58161;DHT22;49345;47.428;9.892;2022-09-03T15:20:30;20.60;99.90
58161;DHT22;49345;47.428;9.892;2022-09-03T15:23:08;20.40;99.90
58161;DHT22;49345;47.428;9.892;2022-09-03T15:33:50;19.90;99.90
58161;DHT22;49345;47.428;9.892;2022-09-03T15:36:20;19.80;99.90
58161;DHT22;49345;47.428;9.892;2022-09-03T15:44:40;19.60;99.90
58161;DHT22;49345;47.428;9.892;2022-09-03T15:47:08;19.50;99.90
58161;DHT22;49345;47.428;9.892;2022-09-03T15:55:06;19.50;99.90
58161;DHT22;49345;47.428;9.892;2022-09-03T16:00:17;19.50;99.90
58161;DHT22;49345;47.428;9.892;2022-09-03T16:02:45;19.50;99.90
58161;DHT22;49345;47.428;9.892;2022-09-03T16:05:20;19.50;99.90
58161;DHT22;49345;47.428;9.892;2022-09-03T16:07:53;19.60;99.90
58161;DHT22;49345;47.428;9.892;2022-09-03T16:10:21;19.60;99.90
58161;DHT22;49345;47.428;9.892;2022-09-03T16:15:44;19.60;99.90
58161;DHT22;49345;47.428;9.892;2022-09-03T16:18:22;19.70;99.90
58161;DHT22;49345;47.428;9.892;2022-09-03T16:23:58;19.80;99.90
58161;DHT22;49345;47.428;9.892;2022-09-03T16:29:07;19.90;99.90
58161;DHT22;49345;47.428;9.892;2022-09-03T16:47:59;19.90;99.90
58161;DHT22;49345;47.428;9.892;2022-09-03T16:56:26;20.00;99.90
58161;DHT22;49345;47.428;9.892;2022-09-03T16:59:10;20.10;99.90
58161;DHT22;49345;47.428;9.892;2022-09-03T17:15:22;19.90;99.90
58161;DHT22;49345;47.428;9.892;2022-09-03T17:26:09;19.40;99.90
58161;DHT22;49345;47.428;9.892;2022-09-03T17:34:29;19.00;99.90
58161;DHT22;49345;47.428;9.892;2022-09-03T17:37:06;18.80;99.90
58161;DHT22;49345;47.428;9.892;2022-09-03T17:45:21;18.30;99.90
58161;DHT22;49345;47.428;9.892;2022-09-03T17:50:49;18.00;99.90
58161;DHT22;49345;47.428;9.892;2022-09-03T17:56:23;17.70;99.90
58161;DHT22;49345;47.428;9.892;2022-09-03T17:58:53;17.40;99.90
58161;DHT22;49345;47.428;9.892;2022-09-03T18:01:22;17.30;99.90
58161;DHT22;49345;47.428;9.892;2022-09-03T18:03:53;17.30;99.90
58161;DHT22;49345;47.428;9.892;2022-09-03T18:06:29;17.20;99.90
58161;DHT22;49345;47.428;9.892;2022-09-03T18:09:02;17.20;99.90
58161;DHT22;49345;47.428;9.892;2022-09-03T18:11:32;17.20;99.90
58161;DHT22;49345;47.428;9.892;2022-09-03T18:19:29;17.10;99.90
58161;DHT22;49345;47.428;9.892;2022-09-03T18:22:11;17.00;99.90
58161;DHT22;49345;47.428;9.892;2022-09-03T18:25:04;16.90;99.90
58161;DHT22;49345;47.428;9.892;2022-09-03T18:28:04;16.90;99.90
58161;DHT22;49345;47.428;9.892;2022-09-03T18:30:59;16.80;99.90
58161;DHT22;49345;47.428;9.892;2022-09-03T18:33:51;16.70;99.90
58161;DHT22;49345;47.428;9.892;2022-09-03T18:36:56;16.50;99.90
58161;DHT22;49345;47.428;9.892;2022-09-03T18:39:59;16.40;99.90
58161;DHT22;49345;47.428;9.892;2022-09-03T18:48:21;16.20;99.90
58161;DHT22;49345;47.428;9.892;2022-09-03T18:56:49;16.10;99.90
58161;DHT22;49345;47.428;9.892;2022-09-03T19:02:26;16.10;99.90
58161;DHT22;49345;47.428;9.892;2022-09-03T19:05:30;16.10;99.90
58161;DHT22;49345;47.428;9.892;2022-09-03T19:08:27;16.20;99.90
58161;DHT22;49345;47.428;9.892;2022-09-03T19:14:04;16.10;99.90
58161;DHT22;49345;47.428;9.892;2022-09-03T19:19:45;16.00;99.90
58161;DHT22;49345;47.428;9.892;2022-09-03T19:22:43;15.90;99.90
58161;DHT22;49345;47.428;9.892;2022-09-03T19:25:36;15.90;99.90
58161;DHT22;49345;47.428;9.892;2022-09-03T19:28:32;15.90;99.90
58161;DHT22;49345;47.428;9.892;2022-09-03T19:51:34;15.90;99.90
58161;DHT22;49345;47.428;9.892;2022-09-03T19:54:28;16.10;99.90
58161;DHT22;49345;47.428;9.892;2022-09-03T19:57:30;16.00;99.90
58161;DHT22;49345;47.428;9.892;2022-09-03T20:00:23;15.90;99.90
58161;DHT22;49345;47.428;9.892;2022-09-03T20:03:16;16.00;99.90
58161;DHT22;49345;47.428;9.892;2022-09-03T20:06:10;16.00;99.90
58161;DHT22;49345;47.428;9.892;2022-09-03T20:09:08;15.90;99.90
58161;DHT22;49345;47.428;9.892;2022-09-03T20:12:04;15.90;99.90
58161;DHT22;49345;47.428;9.892;2022-09-03T20:14:32;15.90;99.90
58161;DHT22;49345;47.428;9.892;2022-09-03T20:30:37;15.80;99.90
58161;DHT22;49345;47.428;9.892;2022-09-03T20:47:08;15.50;99.90
58161;DHT22;49345;47.428;9.892;2022-09-03T21:00:59;15.30;99.90
58161;DHT22;49345;47.428;9.892;2022-09-03T21:03:29;15.10;99.90
58161;DHT22;49345;47.428;9.892;2022-09-03T21:11:49;15.00;99.90
58161;DHT22;49345;47.428;9.892;2022-09-03T21:22:42;14.80;99.90
58161;DHT22;49345;47.428;9.892;2022-09-03T21:25:12;14.80;99.90
58161;DHT22;49345;47.428;9.892;2022-09-03T21:27:47;14.70;99.90
58161;DHT22;49345;47.428;9.892;2022-09-03T21:30:15;14.60;99.90
58161;DHT22;49345;47.428;9.892;2022-09-03T21:32:43;14.60;99.90
58161;DHT22;49345;47.428;9.892;2022-09-03T21:35:14;14.60;99.90
58161;DHT22;49345;47.428;9.892;2022-09-03T21:37:40;14.50;99.90
58161;DHT22;49345;47.428;9.892;2022-09-03T21:40:09;14.60;99.90
58161;DHT22;49345;47.428;9.892;2022-09-03T21:45:26;14.50;99.90
58161;DHT22;49345;47.428;9.892;2022-09-03T21:47:54;14.50;99.90
58161;DHT22;49345;47.428;9.892;2022-09-03T21:50:25;14.50;99.90
58161;DHT22;49345;47.428;9.892;2022-09-03T22:00:55;14.30;99.90
58161;DHT22;49345;47.428;9.892;2022-09-03T22:03:23;14.20;99.90
58161;DHT22;49345;47.428;9.892;2022-09-03T22:05:51;14.20;99.90
58161;DHT22;49345;47.428;9.892;2022-09-03T22:08:22;14.10;99.90
58161;DHT22;49345;47.428;9.892;2022-09-03T22:10:52;14.10;99.90
58161;DHT22;49345;47.428;9.892;2022-09-03T22:13:21;14.10;99.90
58161;DHT22;49345;47.428;9.892;2022-09-03T22:15:49;14.10;99.90
58161;DHT22;49345;47.428;9.892;2022-09-03T22:21:02;13.90;99.90
58161;DHT22;49345;47.428;9.892;2022-09-03T22:26:19;13.90;99.90
58161;DHT22;49345;47.428;9.892;2022-09-03T22:28:51;13.90;99.90
58161;DHT22;49345;47.428;9.892;2022-09-03T22:31:31;13.80;99.90
58161;DHT22;49345;47.428;9.892;2022-09-03T22:37:00;13.80;99.90
58161;DHT22;49345;47.428;9.892;2022-09-03T22:39:34;13.80;99.90
58161;DHT22;49345;47.428;9.892;2022-09-03T22:50:33;13.60;99.90
58161;DHT22;49345;47.428;9.892;2022-09-03T22:53:03;13.60;99.90
58161;DHT22;49345;47.428;9.892;2022-09-03T22:55:33;13.50;99.90
58161;DHT22;49345;47.428;9.892;2022-09-03T22:58:03;13.50;99.90
58161;DHT22;49345;47.428;9.892;2022-09-03T23:00:30;13.50;99.90
58161;DHT22;49345;47.428;9.892;2022-09-03T23:03:01;13.50;99.90
58161;DHT22;49345;47.428;9.892;2022-09-03T23:08:10;13.40;99.90
58161;DHT22;49345;47.428;9.892;2022-09-03T23:13:34;13.30;99.90
58161;DHT22;49345;47.428;9.892;2022-09-03T23:18:39;13.30;99.90
58161;DHT22;49345;47.428;9.892;2022-09-03T23:21:11;13.30;99.90
58161;DHT22;49345;47.428;9.892;2022-09-03T23:23:43;13.30;99.90
58161;DHT22;49345;47.428;9.892;2022-09-03T23:26:11;13.20;99.90
58161;DHT22;49345;47.428;9.892;2022-09-03T23:28:40;13.20;99.90
58161;DHT22;49345;47.428;9.892;2022-09-03T23:31:16;13.20;99.90
58161;DHT22;49345;47.428;9.892;2022-09-03T23:33:42;13.20;99.90
58161;DHT22;49345;47.428;9.892;2022-09-03T23:36:14;13.10;99.90
58161;DHT22;49345;47.428;9.892;2022-09-03T23:38:48;13.10;99.90
58161;DHT22;49345;47.428;9.892;2022-09-03T23:41:19;13.10;99.90
58161;DHT22;49345;47.428;9.892;2022-09-03T23:43:58;13.10;99.90
58161;DHT22;49345;47.428;9.892;2022-09-03T23:57:52;12.90;99.90
